sensor_id;sensor_type;location;lat;lon;timestamp;temperature;humidity
26583;DHT22;14230;45.382;10.998;2022-07-06T00:00:10;25.90;99.90
26583;DHT22;14230;45.382;10.998;2022-07-06T00:02:38;25.70;99.90
26583;DHT22;14230;45.382;10.998;2022-07-06T00:05:05;25.50;99.90
26583;DHT22;14230;45.382;10.998;2022-07-06T00:07:33;25.50;99.90
26583;DHT22;14230;45.382;10.998;2022-07-06T00:10:00;25.40;99.90
26583;DHT22;14230;45.382;10.998;2022-07-06T00:12:28;25.30;99.90
26583;DHT22;14230;45.382;10.998;2022-07-06T00:14:55;25.30;99.90
26583;DHT22;14230;45.382;10.998;2022-07-06T00:17:23;25.30;99.90
26583;DHT22;14230;45.382;10.998;2022-07-06T00:19:50;25.30;99.90
26583;DHT22;14230;45.382;10.998;2022-07-06T00:22:18;25.30;99.90
26583;DHT22;14230;45.382;10.998;2022-07-06T00:24:48;25.20;99.90
26583;DHT22;14230;45.382;10.998;2022-07-06T00:27:16;25.10;99.90
26583;DHT22;14230;45.382;10.998;2022-07-06T00:29:43;25.00;99.90
26583;DHT22;14230;45.382;10.998;2022-07-06T00:32:11;24.90;99.90
26583;DHT22;14230;45.382;10.998;2022-07-06T00:34:38;24.90;99.90
26583;DHT22;14230;45.382;10.998;2022-07-06T00:37:09;24.80;99.90
26583;DHT22;14230;45.382;10.998;2022-07-06T00:39:37;24.70;99.90
26583;DHT22;14230;45.382;10.998;2022-07-06T00:42:04;24.80;99.90
26583;DHT22;14230;45.382;10.998;2022-07-06T00:44:33;24.60;99.90
26583;DHT22;14230;45.382;10.998;2022-07-06T00:47:00;24.50;99.90
26583;DHT22;14230;45.382;10.998;2022-07-06T00:49:28;24.40;99.90
26583;DHT22;14230;45.382;10.998;2022-07-06T00:52:13;24.40;99.90
26583;DHT22;14230;45.382;10.998;2022-07-06T00:54:42;24.30;99.90
26583;DHT22;14230;45.382;10.998;2022-07-06T00:57:10;24.30;99.90
26583;DHT22;14230;45.382;10.998;2022-07-06T00:59:37;24.30;99.90
26583;DHT22;14230;45.382;10.998;2022-07-06T01:02:05;24.40;99.90
26583;DHT22;14230;45.382;10.998;2022-07-06T01:04:32;24.30;99.90
26583;DHT22;14230;45.382;10.998;2022-07-06T01:07:00;24.30;99.90
26583;DHT22;14230;45.382;10.998;2022-07-06T01:09:27;24.30;99.90
26583;DHT22;14230;45.382;10.998;2022-07-06T01:11:55;24.30;99.90
26583;DHT22;14230;45.382;10.998;2022-07-06T01:14:23;24.30;99.90
26583;DHT22;14230;45.382;10.998;2022-07-06T01:16:51;24.40;99.90
26583;DHT22;14230;45.382;10.998;2022-07-06T01:19:19;24.40;99.90
26583;DHT22;14230;45.382;10.998;2022-07-06T01:21:46;24.50;99.90
26583;DHT22;14230;45.382;10.998;2022-07-06T01:24:13;24.50;99.90
26583;DHT22;14230;45.382;10.998;2022-07-06T01:26:40;24.50;99.90
26583;DHT22;14230;45.382;10.998;2022-07-06T01:29:08;24.50;99.90
26583;DHT22;14230;45.382;10.998;2022-07-06T01:31:35;24.50;99.90
26583;DHT22;14230;45.382;10.998;2022-07-06T01:34:12;24.40;99.90
26583;DHT22;14230;45.382;10.998;2022-07-06T01:36:40;24.40;99.90
26583;DHT22;14230;45.382;10.998;2022-07-06T01:39:08;24.30;99.90
26583;DHT22;14230;45.382;10.998;2022-07-06T01:41:37;24.30;99.90
26583;DHT22;14230;45.382;10.998;2022-07-06T01:44:05;24.20;99.90
26583;DHT22;14230;45.382;10.998;2022-07-06T01:46:32;24.20;99.90
26583;DHT22;14230;45.382;10.998;2022-07-06T01:49:00;24.20;99.90
26583;DHT22;14230;45.382;10.998;2022-07-06T01:51:28;24.20;99.90
26583;DHT22;14230;45.382;10.998;2022-07-06T01:53:55;24.20;99.90
26583;DHT22;14230;45.382;10.998;2022-07-06T01:56:22;24.20;99.90
26583;DHT22;14230;45.382;10.998;2022-07-06T01:58:53;24.10;99.90
26583;DHT22;14230;45.382;10.998;2022-07-06T02:01:22;24.00;99.90
26583;DHT22;14230;45.382;10.998;2022-07-06T02:03:49;23.90;99.90
26583;DHT22;14230;45.382;10.998;2022-07-06T02:06:17;23.80;99.90
26583;DHT22;14230;45.382;10.998;2022-07-06T02:08:47;23.80;99.90
26583;DHT22;14230;45.382;10.998;2022-07-06T02:11:14;23.70;99.90
26583;DHT22;14230;45.382;10.998;2022-07-06T02:13:43;23.70;99.90
26583;DHT22;14230;45.382;10.998;2022-07-06T02:16:11;23.70;99.90
26583;DHT22;14230;45.382;10.998;2022-07-06T02:18:38;23.60;99.90
26583;DHT22;14230;45.382;10.998;2022-07-06T02:21:05;23.60;99.90
26583;DHT22;14230;45.382;10.998;2022-07-06T02:23:33;23.60;99.90
26583;DHT22;14230;45.382;10.998;2022-07-06T02:26:00;23.50;99.90
26583;DHT22;14230;45.382;10.998;2022-07-06T02:28:28;23.60;99.90
26583;DHT22;14230;45.382;10.998;2022-07-06T02:30:56;23.60;99.90
26583;DHT22;14230;45.382;10.998;2022-07-06T02:33:23;23.60;99.90
26583;DHT22;14230;45.382;10.998;2022-07-06T02:35:50;23.60;99.90
26583;DHT22;14230;45.382;10.998;2022-07-06T02:38:18;23.60;99.90
26583;DHT22;14230;45.382;10.998;2022-07-06T02:40:45;23.60;99.90
26583;DHT22;14230;45.382;10.998;2022-07-06T02:43:13;23.70;99.90
26583;DHT22;14230;45.382;10.998;2022-07-06T02:45:41;23.70;99.90
26583;DHT22;14230;45.382;10.998;2022-07-06T02:48:10;23.70;99.90
26583;DHT22;14230;45.382;10.998;2022-07-06T02:50:37;23.70;99.90
26583;DHT22;14230;45.382;10.998;2022-07-06T02:53:05;23.80;99.90
26583;DHT22;14230;45.382;10.998;2022-07-06T02:55:32;23.80;99.90
26583;DHT22;14230;45.382;10.998;2022-07-06T02:58:00;23.80;99.90
26583;DHT22;14230;45.382;10.998;2022-07-06T03:00:28;23.80;99.90
26583;DHT22;14230;45.382;10.998;2022-07-06T03:02:57;23.90;99.90
26583;DHT22;14230;45.382;10.998;2022-07-06T03:05:24;23.90;99.90
26583;DHT22;14230;45.382;10.998;2022-07-06T03:07:51;23.80;99.90
26583;DHT22;14230;45.382;10.998;2022-07-06T03:10:19;23.80;99.90
26583;DHT22;14230;45.382;10.998;2022-07-06T03:12:46;23.70;99.90
26583;DHT22;14230;45.382;10.998;2022-07-06T03:15:14;23.60;99.90
26583;DHT22;14230;45.382;10.998;2022-07-06T03:17:44;23.60;99.90
26583;DHT22;14230;45.382;10.998;2022-07-06T03:20:12;23.60;99.90
26583;DHT22;14230;45.382;10.998;2022-07-06T03:22:41;23.50;99.90
26583;DHT22;14230;45.382;10.998;2022-07-06T03:25:10;23.50;99.90
26583;DHT22;14230;45.382;10.998;2022-07-06T03:27:39;23.50;99.90
26583;DHT22;14230;45.382;10.998;2022-07-06T03:30:08;23.60;99.90
26583;DHT22;14230;45.382;10.998;2022-07-06T03:32:42;23.60;99.90
26583;DHT22;14230;45.382;10.998;2022-07-06T03:35:14;23.60;99.90
26583;DHT22;14230;45.382;10.998;2022-07-06T03:37:43;23.60;99.90
26583;DHT22;14230;45.382;10.998;2022-07-06T03:40:10;23.60;99.90
26583;DHT22;14230;45.382;10.998;2022-07-06T03:42:38;23.60;99.90
26583;DHT22;14230;45.382;10.998;2022-07-06T03:45:08;23.70;99.90
26583;DHT22;14230;45.382;10.998;2022-07-06T03:47:36;23.70;99.90
26583;DHT22;14230;45.382;10.998;2022-07-06T03:50:03;23.70;99.90
26583;DHT22;14230;45.382;10.998;2022-07-06T03:52:31;23.70;99.90
26583;DHT22;14230;45.382;10.998;2022-07-06T03:54:59;23.60;99.90
26583;DHT22;14230;45.382;10.998;2022-07-06T03:57:29;23.60;99.90
26583;DHT22;14230;45.382;10.998;2022-07-06T04:00:00;23.60;99.90
26583;DHT22;14230;45.382;10.998;2022-07-06T04:02:28;23.60;99.90
26583;DHT22;14230;45.382;10.998;2022-07-06T04:04:56;23.70;99.90
26583;DHT22;14230;45.382;10.998;2022-07-06T04:07:23;23.70;99.90
26583;DHT22;14230;45.382;10.998;2022-07-06T04:09:50;23.70;99.90
26583;DHT22;14230;45.382;10.998;2022-07-06T04:12:18;23.80;99.90
26583;DHT22;14230;45.382;10.998;2022-07-06T04:14:45;23.90;99.90
26583;DHT22;14230;45.382;10.998;2022-07-06T04:17:12;23.90;99.90
26583;DHT22;14230;45.382;10.998;2022-07-06T04:19:59;24.00;99.90
26583;DHT22;14230;45.382;10.998;2022-07-06T04:22:26;24.00;99.90
26583;DHT22;14230;45.382;10.998;2022-07-06T04:24:53;24.10;99.90
26583;DHT22;14230;45.382;10.998;2022-07-06T04:27:21;24.10;99.90
26583;DHT22;14230;45.382;10.998;2022-07-06T04:29:48;24.20;99.90
26583;DHT22;14230;45.382;10.998;2022-07-06T04:32:16;24.30;99.90
26583;DHT22;14230;45.382;10.998;2022-07-06T04:34:51;24.30;99.90
26583;DHT22;14230;45.382;10.998;2022-07-06T04:37:18;24.50;99.90
26583;DHT22;14230;45.382;10.998;2022-07-06T04:39:45;24.60;99.90
26583;DHT22;14230;45.382;10.998;2022-07-06T04:42:13;24.90;99.90
26583;DHT22;14230;45.382;10.998;2022-07-06T04:44:40;25.10;99.90
26583;DHT22;14230;45.382;10.998;2022-07-06T04:47:07;25.30;99.90
26583;DHT22;14230;45.382;10.998;2022-07-06T04:49:35;25.70;99.90
26583;DHT22;14230;45.382;10.998;2022-07-06T04:52:07;25.70;99.90
26583;DHT22;14230;45.382;10.998;2022-07-06T04:54:35;25.90;99.90
26583;DHT22;14230;45.382;10.998;2022-07-06T04:57:03;26.00;99.90
26583;DHT22;14230;45.382;10.998;2022-07-06T04:59:38;26.20;99.90
26583;DHT22;14230;45.382;10.998;2022-07-06T05:02:05;26.30;99.90
26583;DHT22;14230;45.382;10.998;2022-07-06T05:04:33;26.40;99.90
26583;DHT22;14230;45.382;10.998;2022-07-06T05:07:00;26.60;99.90
26583;DHT22;14230;45.382;10.998;2022-07-06T05:09:28;27.20;99.90
26583;DHT22;14230;45.382;10.998;2022-07-06T05:11:56;27.90;99.90
26583;DHT22;14230;45.382;10.998;2022-07-06T05:14:23;27.70;99.90
26583;DHT22;14230;45.382;10.998;2022-07-06T05:16:51;27.10;99.90
26583;DHT22;14230;45.382;10.998;2022-07-06T05:19:21;26.60;99.90
26583;DHT22;14230;45.382;10.998;2022-07-06T05:21:48;26.20;99.90
26583;DHT22;14230;45.382;10.998;2022-07-06T05:24:16;26.10;99.90
26583;DHT22;14230;45.382;10.998;2022-07-06T05:26:44;25.90;99.90
26583;DHT22;14230;45.382;10.998;2022-07-06T05:29:11;25.80;99.90
26583;DHT22;14230;45.382;10.998;2022-07-06T05:31:38;25.70;99.90
26583;DHT22;14230;45.382;10.998;2022-07-06T05:34:06;25.60;99.90
26583;DHT22;14230;45.382;10.998;2022-07-06T05:36:33;25.60;99.90
26583;DHT22;14230;45.382;10.998;2022-07-06T05:39:01;25.70;99.90
26583;DHT22;14230;45.382;10.998;2022-07-06T05:41:29;25.80;99.90
26583;DHT22;14230;45.382;10.998;2022-07-06T05:43:59;25.80;99.90
26583;DHT22;14230;45.382;10.998;2022-07-06T05:46:26;25.70;99.90
26583;DHT22;14230;45.382;10.998;2022-07-06T05:48:56;25.70;99.90
26583;DHT22;14230;45.382;10.998;2022-07-06T05:51:41;25.50;99.90
26583;DHT22;14230;45.382;10.998;2022-07-06T05:54:09;25.40;99.90
26583;DHT22;14230;45.382;10.998;2022-07-06T05:56:36;25.30;99.90
26583;DHT22;14230;45.382;10.998;2022-07-06T05:59:07;25.30;99.90
26583;DHT22;14230;45.382;10.998;2022-07-06T06:01:35;25.30;99.90
26583;DHT22;14230;45.382;10.998;2022-07-06T06:04:09;25.30;99.90
26583;DHT22;14230;45.382;10.998;2022-07-06T06:06:36;25.10;99.90
26583;DHT22;14230;45.382;10.998;2022-07-06T06:09:04;25.10;99.90
26583;DHT22;14230;45.382;10.998;2022-07-06T06:11:31;25.00;99.90
26583;DHT22;14230;45.382;10.998;2022-07-06T06:13:59;24.70;99.90
26583;DHT22;14230;45.382;10.998;2022-07-06T06:16:27;23.90;99.90
26583;DHT22;14230;45.382;10.998;2022-07-06T06:18:55;23.30;99.90
26583;DHT22;14230;45.382;10.998;2022-07-06T06:21:22;22.80;99.90
26583;DHT22;14230;45.382;10.998;2022-07-06T06:23:50;22.40;99.90
26583;DHT22;14230;45.382;10.998;2022-07-06T06:26:17;22.10;99.90
26583;DHT22;14230;45.382;10.998;2022-07-06T06:28:45;21.90;99.90
26583;DHT22;14230;45.382;10.998;2022-07-06T06:31:12;21.70;99.90
26583;DHT22;14230;45.382;10.998;2022-07-06T06:33:39;21.60;99.90
26583;DHT22;14230;45.382;10.998;2022-07-06T06:36:07;21.50;99.90
26583;DHT22;14230;45.382;10.998;2022-07-06T06:38:35;21.60;99.90
26583;DHT22;14230;45.382;10.998;2022-07-06T06:41:02;21.80;99.90
26583;DHT22;14230;45.382;10.998;2022-07-06T06:43:30;22.00;99.90
26583;DHT22;14230;45.382;10.998;2022-07-06T06:46:06;22.30;99.90
26583;DHT22;14230;45.382;10.998;2022-07-06T06:48:33;22.60;99.90
26583;DHT22;14230;45.382;10.998;2022-07-06T06:51:00;23.00;99.90
26583;DHT22;14230;45.382;10.998;2022-07-06T06:53:28;23.30;99.90
26583;DHT22;14230;45.382;10.998;2022-07-06T06:55:59;23.60;99.90
26583;DHT22;14230;45.382;10.998;2022-07-06T06:58:26;23.80;99.90
26583;DHT22;14230;45.382;10.998;2022-07-06T07:01:11;24.20;99.90
26583;DHT22;14230;45.382;10.998;2022-07-06T07:03:38;25.30;99.90
26583;DHT22;14230;45.382;10.998;2022-07-06T07:06:06;26.60;99.90
26583;DHT22;14230;45.382;10.998;2022-07-06T07:08:33;28.00;99.90
26583;DHT22;14230;45.382;10.998;2022-07-06T07:11:03;29.40;99.90
26583;DHT22;14230;45.382;10.998;2022-07-06T07:13:33;30.10;99.90
26583;DHT22;14230;45.382;10.998;2022-07-06T07:16:00;30.80;99.90
26583;DHT22;14230;45.382;10.998;2022-07-06T07:18:27;31.50;99.90
26583;DHT22;14230;45.382;10.998;2022-07-06T07:20:57;32.10;99.90
26583;DHT22;14230;45.382;10.998;2022-07-06T07:23:24;32.90;99.90
26583;DHT22;14230;45.382;10.998;2022-07-06T07:25:51;33.20;99.90
26583;DHT22;14230;45.382;10.998;2022-07-06T07:28:19;33.50;99.90
26583;DHT22;14230;45.382;10.998;2022-07-06T07:30:46;33.80;99.90
26583;DHT22;14230;45.382;10.998;2022-07-06T07:33:14;33.40;99.90
26583;DHT22;14230;45.382;10.998;2022-07-06T07:35:41;33.00;99.90
26583;DHT22;14230;45.382;10.998;2022-07-06T07:38:11;33.70;99.90
26583;DHT22;14230;45.382;10.998;2022-07-06T07:40:39;35.20;99.90
26583;DHT22;14230;45.382;10.998;2022-07-06T07:43:08;35.40;99.90
26583;DHT22;14230;45.382;10.998;2022-07-06T07:45:36;35.80;97.50
26583;DHT22;14230;45.382;10.998;2022-07-06T07:48:04;36.00;98.10
26583;DHT22;14230;45.382;10.998;2022-07-06T07:50:31;36.70;96.50
26583;DHT22;14230;45.382;10.998;2022-07-06T07:52:58;37.40;95.40
26583;DHT22;14230;45.382;10.998;2022-07-06T07:55:26;37.50;94.80
26583;DHT22;14230;45.382;10.998;2022-07-06T07:58:07;37.00;91.80
26583;DHT22;14230;45.382;10.998;2022-07-06T08:00:35;36.80;92.50
26583;DHT22;14230;45.382;10.998;2022-07-06T08:03:02;36.60;92.40
26583;DHT22;14230;45.382;10.998;2022-07-06T08:05:30;36.60;93.30
26583;DHT22;14230;45.382;10.998;2022-07-06T08:07:57;36.60;93.70
26583;DHT22;14230;45.382;10.998;2022-07-06T08:10:25;37.20;93.90
26583;DHT22;14230;45.382;10.998;2022-07-06T08:12:52;38.40;92.40
26583;DHT22;14230;45.382;10.998;2022-07-06T08:15:19;38.00;90.00
26583;DHT22;14230;45.382;10.998;2022-07-06T08:17:47;37.90;89.80
26583;DHT22;14230;45.382;10.998;2022-07-06T08:20:14;38.10;90.00
26583;DHT22;14230;45.382;10.998;2022-07-06T08:22:42;38.20;88.10
26583;DHT22;14230;45.382;10.998;2022-07-06T08:25:09;37.70;88.10
26583;DHT22;14230;45.382;10.998;2022-07-06T08:27:37;37.50;84.60
26583;DHT22;14230;45.382;10.998;2022-07-06T08:30:04;37.80;86.80
26583;DHT22;14230;45.382;10.998;2022-07-06T08:32:39;37.90;82.30
26583;DHT22;14230;45.382;10.998;2022-07-06T08:35:26;38.00;81.20
26583;DHT22;14230;45.382;10.998;2022-07-06T08:37:53;38.40;80.90
26583;DHT22;14230;45.382;10.998;2022-07-06T08:40:21;37.90;80.10
26583;DHT22;14230;45.382;10.998;2022-07-06T08:42:49;37.70;80.60
26583;DHT22;14230;45.382;10.998;2022-07-06T08:45:21;38.40;81.30
26583;DHT22;14230;45.382;10.998;2022-07-06T08:47:51;39.30;78.70
26583;DHT22;14230;45.382;10.998;2022-07-06T08:50:20;39.20;76.60
26583;DHT22;14230;45.382;10.998;2022-07-06T08:52:48;38.40;77.20
26583;DHT22;14230;45.382;10.998;2022-07-06T08:55:16;38.00;77.00
26583;DHT22;14230;45.382;10.998;2022-07-06T08:57:45;38.20;76.50
26583;DHT22;14230;45.382;10.998;2022-07-06T09:00:13;37.90;76.40
26583;DHT22;14230;45.382;10.998;2022-07-06T09:02:42;37.80;75.30
26583;DHT22;14230;45.382;10.998;2022-07-06T09:05:13;37.80;76.00
26583;DHT22;14230;45.382;10.998;2022-07-06T09:07:48;38.40;75.80
26583;DHT22;14230;45.382;10.998;2022-07-06T09:10:26;38.90;74.00
26583;DHT22;14230;45.382;10.998;2022-07-06T09:12:53;38.90;72.90
26583;DHT22;14230;45.382;10.998;2022-07-06T09:15:28;38.70;74.90
26583;DHT22;14230;45.382;10.998;2022-07-06T09:17:56;39.20;74.80
26583;DHT22;14230;45.382;10.998;2022-07-06T09:20:24;39.20;72.80
26583;DHT22;14230;45.382;10.998;2022-07-06T09:22:59;38.60;72.90
26583;DHT22;14230;45.382;10.998;2022-07-06T09:25:27;38.00;73.60
26583;DHT22;14230;45.382;10.998;2022-07-06T09:27:55;38.50;73.60
26583;DHT22;14230;45.382;10.998;2022-07-06T09:30:23;39.10;71.00
26583;DHT22;14230;45.382;10.998;2022-07-06T09:32:52;39.10;70.00
26583;DHT22;14230;45.382;10.998;2022-07-06T09:38:00;38.80;67.80
26583;DHT22;14230;45.382;10.998;2022-07-06T09:40:27;38.90;68.50
26583;DHT22;14230;45.382;10.998;2022-07-06T09:45:37;38.40;67.30
26583;DHT22;14230;45.382;10.998;2022-07-06T09:48:06;37.70;68.40
26583;DHT22;14230;45.382;10.998;2022-07-06T09:50:43;37.30;69.40
26583;DHT22;14230;45.382;10.998;2022-07-06T09:53:12;38.10;68.60
26583;DHT22;14230;45.382;10.998;2022-07-06T09:55:46;39.30;67.40
26583;DHT22;14230;45.382;10.998;2022-07-06T09:58:14;39.30;64.90
26583;DHT22;14230;45.382;10.998;2022-07-06T10:00:46;39.30;64.50
26583;DHT22;14230;45.382;10.998;2022-07-06T10:03:13;39.00;66.20
26583;DHT22;14230;45.382;10.998;2022-07-06T10:05:42;39.80;63.80
26583;DHT22;14230;45.382;10.998;2022-07-06T10:08:10;40.40;63.70
26583;DHT22;14230;45.382;10.998;2022-07-06T10:10:38;40.60;63.70
26583;DHT22;14230;45.382;10.998;2022-07-06T10:13:07;40.40;64.40
26583;DHT22;14230;45.382;10.998;2022-07-06T10:15:36;39.80;63.20
26583;DHT22;14230;45.382;10.998;2022-07-06T10:18:04;39.00;63.60
26583;DHT22;14230;45.382;10.998;2022-07-06T10:20:33;39.00;63.40
26583;DHT22;14230;45.382;10.998;2022-07-06T10:23:01;38.40;64.70
26583;DHT22;14230;45.382;10.998;2022-07-06T10:25:28;38.20;65.70
26583;DHT22;14230;45.382;10.998;2022-07-06T10:27:56;38.90;65.30
26583;DHT22;14230;45.382;10.998;2022-07-06T10:30:24;39.50;65.20
26583;DHT22;14230;45.382;10.998;2022-07-06T10:32:54;40.20;63.80
26583;DHT22;14230;45.382;10.998;2022-07-06T10:35:23;40.10;63.50
26583;DHT22;14230;45.382;10.998;2022-07-06T10:40:48;39.90;65.00
26583;DHT22;14230;45.382;10.998;2022-07-06T10:43:32;40.60;61.00
26583;DHT22;14230;45.382;10.998;2022-07-06T10:46:07;40.90;60.40
26583;DHT22;14230;45.382;10.998;2022-07-06T10:48:39;40.60;61.20
26583;DHT22;14230;45.382;10.998;2022-07-06T10:51:07;40.00;61.00
26583;DHT22;14230;45.382;10.998;2022-07-06T10:53:37;40.00;61.10
26583;DHT22;14230;45.382;10.998;2022-07-06T10:56:08;39.80;61.70
26583;DHT22;14230;45.382;10.998;2022-07-06T10:58:48;40.10;63.80
26583;DHT22;14230;45.382;10.998;2022-07-06T11:01:18;40.10;62.80
26583;DHT22;14230;45.382;10.998;2022-07-06T11:06:17;39.00;62.00
26583;DHT22;14230;45.382;10.998;2022-07-06T11:08:52;37.60;63.50
26583;DHT22;14230;45.382;10.998;2022-07-06T11:13:54;35.10;67.90
26583;DHT22;14230;45.382;10.998;2022-07-06T11:16:23;34.70;71.00
26583;DHT22;14230;45.382;10.998;2022-07-06T11:19:00;34.20;75.20
26583;DHT22;14230;45.382;10.998;2022-07-06T11:21:32;33.50;77.50
26583;DHT22;14230;45.382;10.998;2022-07-06T11:24:00;33.00;78.60
26583;DHT22;14230;45.382;10.998;2022-07-06T11:26:30;32.80;81.90
26583;DHT22;14230;45.382;10.998;2022-07-06T11:29:07;32.80;80.50
26583;DHT22;14230;45.382;10.998;2022-07-06T11:31:39;32.70;82.50
26583;DHT22;14230;45.382;10.998;2022-07-06T11:34:10;32.60;80.50
26583;DHT22;14230;45.382;10.998;2022-07-06T11:36:38;32.50;81.70
26583;DHT22;14230;45.382;10.998;2022-07-06T11:39:12;32.60;83.20
26583;DHT22;14230;45.382;10.998;2022-07-06T11:41:40;32.50;83.70
26583;DHT22;14230;45.382;10.998;2022-07-06T11:44:12;32.50;83.70
26583;DHT22;14230;45.382;10.998;2022-07-06T11:46:39;32.60;85.50
26583;DHT22;14230;45.382;10.998;2022-07-06T11:49:08;32.60;84.20
26583;DHT22;14230;45.382;10.998;2022-07-06T11:51:37;32.50;83.70
26583;DHT22;14230;45.382;10.998;2022-07-06T11:54:10;32.50;84.40
26583;DHT22;14230;45.382;10.998;2022-07-06T11:56:45;32.40;82.00
26583;DHT22;14230;45.382;10.998;2022-07-06T11:59:13;32.00;84.00
26583;DHT22;14230;45.382;10.998;2022-07-06T12:01:42;32.00;84.90
26583;DHT22;14230;45.382;10.998;2022-07-06T12:04:11;32.00;83.30
26583;DHT22;14230;45.382;10.998;2022-07-06T12:06:40;32.00;85.90
26583;DHT22;14230;45.382;10.998;2022-07-06T12:09:10;32.10;86.40
26583;DHT22;14230;45.382;10.998;2022-07-06T12:11:37;32.20;84.80
26583;DHT22;14230;45.382;10.998;2022-07-06T12:16:40;32.20;84.10
26583;DHT22;14230;45.382;10.998;2022-07-06T12:19:09;32.10;87.20
26583;DHT22;14230;45.382;10.998;2022-07-06T12:21:48;32.30;86.50
26583;DHT22;14230;45.382;10.998;2022-07-06T12:24:25;32.20;83.70
26583;DHT22;14230;45.382;10.998;2022-07-06T12:26:54;32.00;86.10
26583;DHT22;14230;45.382;10.998;2022-07-06T12:29:22;32.00;83.60
26583;DHT22;14230;45.382;10.998;2022-07-06T12:34:21;31.80;84.30
26583;DHT22;14230;45.382;10.998;2022-07-06T12:36:56;31.90;83.60
26583;DHT22;14230;45.382;10.998;2022-07-06T12:39:31;31.90;83.70
26583;DHT22;14230;45.382;10.998;2022-07-06T12:42:02;32.10;84.00
26583;DHT22;14230;45.382;10.998;2022-07-06T12:44:33;32.20;83.30
26583;DHT22;14230;45.382;10.998;2022-07-06T12:47:08;32.10;82.80
26583;DHT22;14230;45.382;10.998;2022-07-06T12:49:36;32.10;82.50
26583;DHT22;14230;45.382;10.998;2022-07-06T12:54:35;32.00;82.50
26583;DHT22;14230;45.382;10.998;2022-07-06T12:59:35;32.00;80.20
26583;DHT22;14230;45.382;10.998;2022-07-06T13:02:04;32.00;80.90
26583;DHT22;14230;45.382;10.998;2022-07-06T13:04:32;31.90;78.60
26583;DHT22;14230;45.382;10.998;2022-07-06T13:07:00;31.80;78.30
26583;DHT22;14230;45.382;10.998;2022-07-06T13:09:33;31.80;79.80
26583;DHT22;14230;45.382;10.998;2022-07-06T13:12:01;32.00;79.70
26583;DHT22;14230;45.382;10.998;2022-07-06T13:14:28;32.00;78.50
26583;DHT22;14230;45.382;10.998;2022-07-06T13:16:56;31.80;78.60
26583;DHT22;14230;45.382;10.998;2022-07-06T13:19:23;31.90;78.70
26583;DHT22;14230;45.382;10.998;2022-07-06T13:21:51;31.90;80.10
26583;DHT22;14230;45.382;10.998;2022-07-06T13:24:18;31.90;80.30
26583;DHT22;14230;45.382;10.998;2022-07-06T13:26:45;32.00;79.20
26583;DHT22;14230;45.382;10.998;2022-07-06T13:29:13;31.80;79.20
26583;DHT22;14230;45.382;10.998;2022-07-06T13:31:41;31.70;77.90
26583;DHT22;14230;45.382;10.998;2022-07-06T13:34:08;31.80;80.00
26583;DHT22;14230;45.382;10.998;2022-07-06T13:36:36;31.80;79.70
26583;DHT22;14230;45.382;10.998;2022-07-06T13:39:03;31.90;80.80
26583;DHT22;14230;45.382;10.998;2022-07-06T13:41:31;32.00;77.30
26583;DHT22;14230;45.382;10.998;2022-07-06T13:43:59;32.00;76.30
26583;DHT22;14230;45.382;10.998;2022-07-06T13:46:27;32.10;75.40
26583;DHT22;14230;45.382;10.998;2022-07-06T13:48:55;32.20;77.10
26583;DHT22;14230;45.382;10.998;2022-07-06T13:51:26;32.20;77.70
26583;DHT22;14230;45.382;10.998;2022-07-06T13:53:55;32.40;78.00
26583;DHT22;14230;45.382;10.998;2022-07-06T13:56:23;32.50;77.80
26583;DHT22;14230;45.382;10.998;2022-07-06T13:58:50;32.60;77.90
26583;DHT22;14230;45.382;10.998;2022-07-06T14:01:18;32.50;77.50
26583;DHT22;14230;45.382;10.998;2022-07-06T14:03:52;32.40;79.10
26583;DHT22;14230;45.382;10.998;2022-07-06T14:06:19;32.40;80.30
26583;DHT22;14230;45.382;10.998;2022-07-06T14:08:47;32.40;80.90
26583;DHT22;14230;45.382;10.998;2022-07-06T14:11:15;32.40;77.80
26583;DHT22;14230;45.382;10.998;2022-07-06T14:13:42;32.40;78.20
26583;DHT22;14230;45.382;10.998;2022-07-06T14:16:12;32.50;78.90
26583;DHT22;14230;45.382;10.998;2022-07-06T14:18:40;32.60;78.80
26583;DHT22;14230;45.382;10.998;2022-07-06T14:21:07;32.60;78.70
26583;DHT22;14230;45.382;10.998;2022-07-06T14:23:35;32.60;80.10
26583;DHT22;14230;45.382;10.998;2022-07-06T14:26:02;32.70;78.70
26583;DHT22;14230;45.382;10.998;2022-07-06T14:28:29;32.60;79.20
26583;DHT22;14230;45.382;10.998;2022-07-06T14:30:57;32.60;77.70
26583;DHT22;14230;45.382;10.998;2022-07-06T14:33:24;32.50;78.00
26583;DHT22;14230;45.382;10.998;2022-07-06T14:35:52;32.40;78.80
26583;DHT22;14230;45.382;10.998;2022-07-06T14:38:20;32.30;79.50
26583;DHT22;14230;45.382;10.998;2022-07-06T14:40:47;32.30;80.30
26583;DHT22;14230;45.382;10.998;2022-07-06T14:43:16;32.40;80.10
26583;DHT22;14230;45.382;10.998;2022-07-06T14:45:49;32.50;79.80
26583;DHT22;14230;45.382;10.998;2022-07-06T14:48:16;32.60;80.30
26583;DHT22;14230;45.382;10.998;2022-07-06T14:50:47;32.70;80.00
26583;DHT22;14230;45.382;10.998;2022-07-06T14:53:15;32.70;80.50
26583;DHT22;14230;45.382;10.998;2022-07-06T14:55:43;32.70;80.40
26583;DHT22;14230;45.382;10.998;2022-07-06T14:58:10;32.70;80.80
26583;DHT22;14230;45.382;10.998;2022-07-06T15:00:37;32.70;80.10
26583;DHT22;14230;45.382;10.998;2022-07-06T15:03:05;32.70;80.80
26583;DHT22;14230;45.382;10.998;2022-07-06T15:05:32;32.70;81.90
26583;DHT22;14230;45.382;10.998;2022-07-06T15:08:00;32.70;82.60
26583;DHT22;14230;45.382;10.998;2022-07-06T15:10:27;32.80;81.10
26583;DHT22;14230;45.382;10.998;2022-07-06T15:12:55;32.90;81.10
26583;DHT22;14230;45.382;10.998;2022-07-06T15:15:22;32.80;79.60
26583;DHT22;14230;45.382;10.998;2022-07-06T15:18:09;32.80;79.00
26583;DHT22;14230;45.382;10.998;2022-07-06T15:20:37;32.60;79.30
26583;DHT22;14230;45.382;10.998;2022-07-06T15:23:04;32.30;81.00
26583;DHT22;14230;45.382;10.998;2022-07-06T15:25:32;32.00;82.90
26583;DHT22;14230;45.382;10.998;2022-07-06T15:28:00;32.10;84.20
26583;DHT22;14230;45.382;10.998;2022-07-06T15:30:27;32.10;85.00
26583;DHT22;14230;45.382;10.998;2022-07-06T15:32:58;32.30;84.70
26583;DHT22;14230;45.382;10.998;2022-07-06T15:35:25;32.30;84.30
26583;DHT22;14230;45.382;10.998;2022-07-06T15:37:52;32.40;83.60
26583;DHT22;14230;45.382;10.998;2022-07-06T15:40:22;32.30;83.90
26583;DHT22;14230;45.382;10.998;2022-07-06T15:42:55;32.20;83.30
26583;DHT22;14230;45.382;10.998;2022-07-06T15:45:22;32.30;84.40
26583;DHT22;14230;45.382;10.998;2022-07-06T15:47:53;32.40;85.70